Time;durP1;ratioP1;P1;durP2;ratioP2;P2;SDS_P1;SDS_P2;PMS_P1;PMS_P2;Temp;Humidity;BMP_temperature;BMP_pressure;BME280_temperature;BME280_humidity;BME280_pressure;Samples;Min_cycle;Max_cycle;Signal;HPM_P1;HPM_P2
2024/03/02 00:00:10;;;;;;;3.40;2.45;;;8.40;42.20;;;;;;5051410;28;20389;-76
2024/03/02 00:02:44;;;;;;;4.10;2.50;;;8.30;43.00;;;;;;5051278;28;20462;-75
2024/03/02 00:05:21;;;;;;;3.90;2.28;;;8.30;43.10;;;;;;5051258;28;20408;-76
2024/03/02 00:07:54;;;;;;;4.40;2.10;;;8.40;43.40;;;;;;5049886;28;20424;-75
2024/03/02 00:10:31;;;;;;;4.60;2.80;;;8.50;42.70;;;;;;5051303;28;20381;-75
2024/03/02 00:12:57;;;;;;;3.75;2.20;;;8.40;43.30;;;;;;5051372;28;20388;-76
2024/03/02 00:15:41;;;;;;;4.50;2.60;;;8.50;42.80;;;;;;5051235;28;20476;-76
2024/03/02 00:18:08;;;;;;;3.88;2.40;;;8.60;42.70;;;;;;5051059;28;20385;-76
2024/03/02 00:20:33;;;;;;;5.90;2.70;;;8.60;42.10;;;;;;5051341;28;20810;-75
2024/03/02 00:23:07;;;;;;;4.15;2.50;;;8.70;41.90;;;;;;5053455;28;20476;-77
2024/03/02 00:25:41;;;;;;;7.53;2.60;;;8.80;41.30;;;;;;5056851;28;20408;-76
2024/03/02 00:28:14;;;;;;;6.95;2.60;;;8.80;41.10;;;;;;5051313;28;20385;-75
2024/03/02 00:30:59;;;;;;;3.60;2.50;;;8.90;41.40;;;;;;5051457;28;20409;-75
2024/03/02 00:33:32;;;;;;;4.88;2.40;;;8.90;41.50;;;;;;5052194;28;20433;-75
2024/03/02 00:35:59;;;;;;;3.97;2.25;;;9.00;40.90;;;;;;5051332;28;20369;-76
2024/03/02 00:38:25;;;;;;;4.80;2.45;;;9.00;40.10;;;;;;5033194;28;20385;-76
2024/03/02 00:40:51;;;;;;;3.42;2.50;;;9.10;39.70;;;;;;5051035;28;20405;-76
2024/03/02 00:43:37;;;;;;;3.53;2.10;;;9.00;39.70;;;;;;5051548;28;20764;-75
2024/03/02 00:46:02;;;;;;;2.67;1.85;;;9.00;40.20;;;;;;5033104;28;20390;-76
2024/03/02 00:48:31;;;;;;;3.63;2.10;;;9.10;39.80;;;;;;5051121;28;20388;-76
2024/03/02 00:50:57;;;;;;;4.28;2.30;;;9.00;40.40;;;;;;5050849;28;20748;-76
2024/03/02 00:53:26;;;;;;;2.78;2.00;;;9.20;39.40;;;;;;5047890;28;20385;-76
2024/03/02 00:55:52;;;;;;;5.28;2.50;;;9.10;39.20;;;;;;5038452;28;20856;-74
2024/03/02 00:58:18;;;;;;;2.92;1.98;;;9.20;39.30;;;;;;5032582;28;20391;-75
2024/03/02 01:00:43;;;;;;;5.40;1.80;;;9.10;39.10;;;;;;5034083;28;20891;-76
2024/03/02 01:03:10;;;;;;;4.87;2.20;;;9.10;39.20;;;;;;5037580;28;20753;-72
2024/03/02 01:05:36;;;;;;;3.42;2.47;;;9.20;39.00;;;;;;5034765;28;20394;-76
2024/03/02 01:08:02;;;;;;;3.60;2.30;;;9.20;38.80;;;;;;5034439;28;20563;-75
2024/03/02 01:10:27;;;;;;;5.63;2.70;;;9.20;38.50;;;;;;5041635;28;20387;-76
2024/03/02 01:12:53;;;;;;;5.30;2.70;;;9.30;38.90;;;;;;5044721;28;20395;-75
2024/03/02 01:15:19;;;;;;;6.20;3.17;;;9.20;38.80;;;;;;5038466;28;20402;-76
2024/03/02 01:17:44;;;;;;;4.97;2.50;;;9.10;39.30;;;;;;5034399;28;20391;-75
2024/03/02 01:20:10;;;;;;;4.20;2.53;;;9.10;39.30;;;;;;5035393;28;20475;-76
2024/03/02 01:22:37;;;;;;;4.57;2.83;;;9.00;39.40;;;;;;5035104;28;20468;-76
2024/03/02 01:25:03;;;;;;;5.38;3.20;;;9.00;39.80;;;;;;5034235;28;20387;-75
2024/03/02 01:27:28;;;;;;;5.82;3.22;;;8.90;40.20;;;;;;5034225;28;20429;-75
2024/03/02 01:29:54;;;;;;;5.47;3.03;;;8.80;40.00;;;;;;5034750;28;20546;-75
2024/03/02 01:32:20;;;;;;;8.32;4.10;;;9.20;40.40;;;;;;5034536;28;20387;-76
2024/03/02 01:34:45;;;;;;;6.13;4.10;;;8.60;41.50;;;;;;5034605;28;20531;-75
2024/03/02 01:37:11;;;;;;;5.10;3.00;;;8.60;41.60;;;;;;5034112;28;20391;-75
2024/03/02 01:39:37;;;;;;;4.53;3.20;;;8.60;40.70;;;;;;5035852;28;20383;-75
2024/03/02 01:42:02;;;;;;;8.33;4.20;;;8.60;41.50;;;;;;5036328;28;20940;-75
2024/03/02 01:44:28;;;;;;;8.97;4.60;;;8.60;41.50;;;;;;5034268;28;20475;-75
2024/03/02 01:46:53;;;;;;;4.80;3.13;;;8.60;41.20;;;;;;5034093;28;20463;-76
2024/03/02 01:49:19;;;;;;;5.75;3.53;;;8.60;41.10;;;;;;5034140;28;20870;-75
2024/03/02 01:51:45;;;;;;;6.03;3.35;;;8.60;41.20;;;;;;5034138;28;20727;-75
2024/03/02 01:54:11;;;;;;;5.00;3.43;;;8.70;41.10;;;;;;5034613;28;20409;-75
2024/03/02 01:56:36;;;;;;;4.90;3.20;;;8.70;41.00;;;;;;5034136;28;20499;-74
2024/03/02 01:59:03;;;;;;;5.90;3.00;;;8.60;41.20;;;;;;5034479;28;20397;-76
2024/03/02 02:01:28;;;;;;;4.82;2.85;;;8.60;40.80;;;;;;5034331;28;20465;-75
2024/03/02 02:03:54;;;;;;;6.18;3.67;;;8.60;40.90;;;;;;5034442;28;20423;-75
2024/03/02 02:06:20;;;;;;;8.35;3.45;;;8.60;41.50;;;;;;5034534;28;20383;-76
2024/03/02 02:08:47;;;;;;;8.43;3.33;;;8.60;40.60;;;;;;5016946;28;20469;-75
2024/03/02 02:11:15;;;;;;;4.82;3.00;;;8.70;40.40;;;;;;5016633;28;20451;-75
2024/03/02 02:13:41;;;;;;;4.97;2.67;;;8.70;40.40;;;;;;5033982;28;20426;-74
2024/03/02 02:16:09;;;;;;;7.47;3.15;;;8.70;40.20;;;;;;5037009;28;20395;-77
2024/03/02 02:18:35;;;;;;;3.58;2.63;;;8.70;40.10;;;;;;5034834;28;20445;-77
2024/03/02 02:21:01;;;;;;;4.60;2.77;;;8.80;39.40;;;;;;5035921;28;20378;-75
2024/03/02 02:23:27;;;;;;;4.95;2.50;;;8.80;39.30;;;;;;5037912;28;20411;-77
2024/03/02 02:25:53;;;;;;;4.40;2.53;;;8.90;39.20;;;;;;5045424;28;20402;-76
2024/03/02 02:28:18;;;;;;;5.32;2.90;;;8.90;38.90;;;;;;5041279;28;20746;-77
2024/03/02 02:30:44;;;;;;;5.80;3.03;;;8.90;38.70;;;;;;5038362;28;20888;-78
2024/03/02 02:33:09;;;;;;;3.40;1.90;;;8.90;38.80;;;;;;5035455;28;20766;-75
2024/03/02 02:35:35;;;;;;;2.77;1.87;;;9.00;38.80;;;;;;5034582;28;20379;-78
2024/03/02 02:38:01;;;;;;;4.30;2.37;;;9.10;38.10;;;;;;5034774;28;20470;-77
2024/03/02 02:40:30;;;;;;;4.72;2.20;;;9.20;37.70;;;;;;5034353;28;20419;-77
2024/03/02 02:42:56;;;;;;;5.55;2.13;;;9.30;37.00;;;;;;5033904;28;20822;-75
2024/03/02 02:45:22;;;;;;;6.07;2.97;;;9.40;36.90;;;;;;5033629;28;20391;-77
2024/03/02 02:47:47;;;;;;;5.63;2.73;;;9.50;37.10;;;;;;5016226;28;20418;-77
2024/03/02 02:50:13;;;;;;;5.47;2.43;;;9.60;36.60;;;;;;5033597;28;20719;-76
2024/03/02 02:52:40;;;;;;;3.80;2.10;;;9.60;36.10;;;;;;5020426;28;20423;-77
2024/03/02 02:55:11;;;;;;;4.18;2.13;;;9.50;36.00;;;;;;5017519;28;20746;-75
2024/03/02 02:57:39;;;;;;;4.95;1.80;;;9.50;36.40;;;;;;5038712;28;20399;-76
2024/03/02 03:00:14;;;;;;;3.40;2.20;;;9.30;36.70;;;;;;5034263;28;20391;-77
2024/03/02 03:02:41;;;;;;;4.35;2.47;;;9.30;36.80;;;;;;5015815;28;20411;-77
2024/03/02 03:05:08;;;;;;;6.00;3.00;;;9.20;37.30;;;;;;5033711;28;20415;-79
2024/03/02 03:07:34;;;;;;;5.93;2.42;;;9.10;37.30;;;;;;5033127;28;20901;-76
2024/03/02 03:10:01;;;;;;;5.10;2.63;;;9.10;37.40;;;;;;5015552;28;20404;-76
2024/03/02 03:12:26;;;;;;;6.28;2.13;;;9.00;37.90;;;;;;5033890;28;20477;-76
2024/03/02 03:14:52;;;;;;;4.70;2.00;;;8.90;38.00;;;;;;5033843;28;20476;-77
2024/03/02 03:17:17;;;;;;;2.55;1.80;;;8.90;38.10;;;;;;5033120;28;20874;-78
2024/03/02 03:19:43;;;;;;;6.95;2.92;;;9.00;38.10;;;;;;5015721;28;20387;-77
2024/03/02 03:22:09;;;;;;;9.40;2.47;;;9.00;38.30;;;;;;5033909;28;20975;-77
2024/03/02 03:24:35;;;;;;;3.42;2.00;;;9.10;37.90;;;;;;5016286;28;20402;-78
2024/03/02 03:27:00;;;;;;;5.17;2.50;;;9.20;37.50;;;;;;5033734;28;20825;-77
2024/03/02 03:29:26;;;;;;;5.85;2.22;;;9.30;37.30;;;;;;5033711;28;20387;-77
2024/03/02 03:31:51;;;;;;;5.63;2.25;;;9.30;37.10;;;;;;5033366;28;20387;-77
2024/03/02 03:34:17;;;;;;;3.28;2.08;;;9.30;37.20;;;;;;5033502;28;20482;-76
2024/03/02 03:36:43;;;;;;;2.15;1.70;;;9.30;37.40;;;;;;5032624;28;20382;-76
2024/03/02 03:39:08;;;;;;;4.15;1.80;;;9.10;37.60;;;;;;5033522;28;20522;-76
2024/03/02 03:41:34;;;;;;;3.78;2.00;;;9.10;37.80;;;;;;5034869;28;20461;-76
2024/03/02 03:43:59;;;;;;;4.63;2.10;;;9.20;37.50;;;;;;5035741;28;20397;-77
2024/03/02 03:46:25;;;;;;;2.90;1.80;;;9.20;37.40;;;;;;5041054;28;20383;-77
2024/03/02 03:48:50;;;;;;;4.30;1.70;;;9.20;37.90;;;;;;5038824;28;20389;-77
2024/03/02 03:51:16;;;;;;;3.10;1.80;;;9.30;38.20;;;;;;5038678;28;20391;-77
2024/03/02 03:53:41;;;;;;;4.68;1.70;;;9.30;37.50;;;;;;5035461;28;20391;-77
2024/03/02 03:56:07;;;;;;;3.60;2.25;;;9.30;37.20;;;;;;5046732;28;20375;-75
2024/03/02 03:58:33;;;;;;;5.93;2.60;;;9.30;37.30;;;;;;5053355;28;20387;-76
2024/03/02 04:00:58;;;;;;;3.97;2.53;;;9.20;37.90;;;;;;5044841;28;20379;-77
2024/03/02 04:03:24;;;;;;;3.57;2.00;;;9.10;38.00;;;;;;5031935;28;20536;-76
2024/03/02 04:05:50;;;;;;;3.90;2.00;;;9.10;37.90;;;;;;5033534;28;20475;-76
2024/03/02 04:08:15;;;;;;;3.53;1.83;;;9.10;38.00;;;;;;5015632;28;20797;-77
2024/03/02 04:10:41;;;;;;;5.77;2.33;;;8.90;38.30;;;;;;5033305;28;20390;-78
2024/03/02 04:13:07;;;;;;;4.03;2.13;;;8.90;38.80;;;;;;5033111;28;20415;-76
2024/03/02 04:15:33;;;;;;;4.20;2.20;;;9.00;38.70;;;;;;5032068;28;20496;-78
2024/03/02 04:17:58;;;;;;;4.47;1.80;;;9.00;38.70;;;;;;5032332;28;20473;-77
2024/03/02 04:20:25;;;;;;;3.13;1.57;;;8.80;39.10;;;;;;5031889;28;20384;-78
2024/03/02 04:22:50;;;;;;;4.68;2.30;;;8.70;39.50;;;;;;5014702;28;20434;-76
2024/03/02 04:25:16;;;;;;;6.63;3.00;;;8.60;39.90;;;;;;5035993;28;20395;-77
2024/03/02 04:27:41;;;;;;;2.70;1.90;;;8.50;40.60;;;;;;5038606;28;20385;-76
2024/03/02 04:30:07;;;;;;;6.20;2.30;;;8.50;40.60;;;;;;5035778;28;20379;-77
2024/03/02 04:32:33;;;;;;;5.25;2.20;;;8.30;41.10;;;;;;5032246;28;20971;-76
2024/03/02 04:34:58;;;;;;;6.57;2.57;;;8.20;41.60;;;;;;5032012;28;20739;-76
2024/03/02 04:37:24;;;;;;;4.17;2.17;;;8.30;41.50;;;;;;5031329;28;20750;-76
2024/03/02 04:39:49;;;;;;;4.60;2.10;;;8.20;41.50;;;;;;5031891;28;20387;-77
2024/03/02 04:42:15;;;;;;;3.80;2.50;;;8.10;42.00;;;;;;5032247;28;20913;-77
2024/03/02 04:44:40;;;;;;;4.37;2.30;;;8.20;42.20;;;;;;5032960;28;20801;-78
2024/03/02 04:47:06;;;;;;;6.07;2.70;;;8.20;41.90;;;;;;5033374;28;20379;-77
2024/03/02 04:49:32;;;;;;;3.65;2.40;;;8.30;41.80;;;;;;5036303;28;20371;-77
2024/03/02 04:51:57;;;;;;;6.10;2.80;;;8.30;41.70;;;;;;5041108;28;20399;-76
2024/03/02 04:54:23;;;;;;;3.40;2.65;;;8.30;41.70;;;;;;5037823;28;20435;-76
2024/03/02 04:56:49;;;;;;;5.72;2.40;;;8.30;42.20;;;;;;5039247;28;20459;-77
2024/03/02 04:59:16;;;;;;;6.40;2.40;;;8.20;41.70;;;;;;5039257;28;20423;-76
2024/03/02 05:01:42;;;;;;;7.05;3.05;;;8.10;42.40;;;;;;5038291;28;20816;-76
2024/03/02 05:04:10;;;;;;;6.53;2.97;;;8.00;43.10;;;;;;5037090;28;20466;-76
2024/03/02 05:06:36;;;;;;;7.70;2.70;;;7.90;43.70;;;;;;5044485;28;20417;-77
2024/03/02 05:09:01;;;;;;;6.50;3.20;;;7.80;44.00;;;;;;5027764;28;20395;-78
2024/03/02 05:11:56;;;;;;;3.87;2.70;;;7.80;45.30;;;;;;5037575;28;20892;-77
2024/03/02 05:14:21;;;;;;;3.60;1.80;;;7.80;45.00;;;;;;5035816;28;20430;-77
2024/03/02 05:16:47;;;;;;;4.73;2.20;;;7.80;44.20;;;;;;5017730;28;20386;-76
2024/03/02 05:19:12;;;;;;;6.57;2.70;;;7.70;44.70;;;;;;5035427;28;20414;-75
2024/03/02 05:21:38;;;;;;;3.80;2.10;;;7.60;45.30;;;;;;5035215;28;20410;-76
2024/03/02 05:24:03;;;;;;;4.50;2.13;;;7.50;45.90;;;;;;5035440;28;20391;-76
2024/03/02 05:26:29;;;;;;;3.50;1.80;;;7.40;46.80;;;;;;5017807;28;20946;-76
2024/03/02 05:28:54;;;;;;;5.15;2.60;;;7.40;46.30;;;;;;5035873;28;20390;-76
2024/03/02 05:31:20;;;;;;;4.57;2.45;;;7.40;46.40;;;;;;5035411;28;20395;-77
2024/03/02 05:33:45;;;;;;;4.60;2.00;;;7.40;46.70;;;;;;5035841;28;20886;-77
2024/03/02 05:36:11;;;;;;;4.33;2.30;;;7.40;46.50;;;;;;5035345;28;20446;-77
2024/03/02 05:38:37;;;;;;;5.10;2.30;;;7.40;46.70;;;;;;5018234;28;20805;-76
2024/03/02 05:41:03;;;;;;;7.20;2.88;;;7.40;46.80;;;;;;5035847;28;20442;-76
2024/03/02 05:43:29;;;;;;;5.55;2.58;;;7.30;47.40;;;;;;5018696;28;20403;-76
2024/03/02 05:45:54;;;;;;;5.00;2.30;;;7.30;47.50;;;;;;5035821;28;20422;-77
2024/03/02 05:48:20;;;;;;;7.75;3.58;;;7.40;47.10;;;;;;5035324;28;20375;-77
2024/03/02 05:50:45;;;;;;;6.07;2.88;;;7.30;47.90;;;;;;5035582;28;20387;-78
2024/03/02 05:53:11;;;;;;;4.78;2.40;;;7.30;48.20;;;;;;5034896;28;20391;-77
2024/03/02 05:55:36;;;;;;;4.22;2.40;;;7.30;47.90;;;;;;5034890;28;20423;-77
2024/03/02 05:58:20;;;;;;;4.65;2.05;;;7.20;47.80;;;;;;5034809;28;20425;-76
2024/03/02 06:00:46;;;;;;;6.45;2.60;;;7.30;47.50;;;;;;5035171;28;20387;-75
2024/03/02 06:03:11;;;;;;;5.90;2.30;;;7.20;47.70;;;;;;5035903;28;20406;-76
2024/03/02 06:05:37;;;;;;;4.22;2.53;;;7.10;48.10;;;;;;5034494;28;20399;-77
2024/03/02 06:08:03;;;;;;;6.63;2.40;;;7.10;48.70;;;;;;5035058;28;20454;-77
2024/03/02 06:10:28;;;;;;;6.18;2.50;;;7.00;48.60;;;;;;5037132;28;20387;-77
2024/03/02 06:12:54;;;;;;;5.75;2.53;;;7.00;48.80;;;;;;5035047;28;20394;-76
2024/03/02 06:15:19;;;;;;;4.72;2.70;;;7.00;49.30;;;;;;5035809;28;20482;-76
2024/03/02 06:17:45;;;;;;;3.60;2.70;;;7.00;49.60;;;;;;5037020;28;20429;-76
2024/03/02 06:20:11;;;;;;;4.35;2.33;;;7.10;48.90;;;;;;5037981;28;20437;-76
2024/03/02 06:22:37;;;;;;;4.55;2.63;;;7.20;48.80;;;;;;5037208;28;20395;-77
2024/03/02 06:25:02;;;;;;;5.23;2.30;;;7.50;47.00;;;;;;5037419;28;20480;-77
2024/03/02 06:27:28;;;;;;;3.97;2.30;;;7.50;46.80;;;;;;5035362;28;20390;-77
2024/03/02 06:29:54;;;;;;;4.60;2.80;;;7.50;46.90;;;;;;5035526;28;20387;-76
2024/03/02 06:32:20;;;;;;;3.05;2.20;;;7.50;46.80;;;;;;5035597;28;20409;-77
2024/03/02 06:34:45;;;;;;;4.90;2.60;;;7.40;46.70;;;;;;5036891;28;20572;-77
2024/03/02 06:37:11;;;;;;;5.05;2.60;;;7.30;47.30;;;;;;5036438;28;20478;-77
2024/03/02 06:39:37;;;;;;;10.75;3.03;;;7.30;47.70;;;;;;5019422;28;20387;-77
2024/03/02 06:42:02;;;;;;;3.15;2.30;;;7.30;47.30;;;;;;5052276;28;20429;-73
2024/03/02 06:44:28;;;;;;;8.07;2.70;;;7.20;47.50;;;;;;5045772;28;20418;-75
2024/03/02 06:46:54;;;;;;;3.80;2.30;;;7.30;47.90;;;;;;5035811;28;20406;-76
2024/03/02 06:49:19;;;;;;;4.60;2.57;;;7.40;47.30;;;;;;5036235;28;20458;-77
2024/03/02 06:51:45;;;;;;;4.82;2.53;;;7.40;47.10;;;;;;5035443;28;20482;-77
2024/03/02 06:54:10;;;;;;;4.03;2.50;;;7.40;47.10;;;;;;5035478;28;20552;-76
2024/03/02 06:56:37;;;;;;;4.03;2.63;;;7.50;47.10;;;;;;5033899;28;20395;-77
2024/03/02 06:59:02;;;;;;;5.15;2.80;;;7.70;46.40;;;;;;5033853;28;20387;-76
2024/03/02 07:01:28;;;;;;;6.10;2.83;;;7.80;45.80;;;;;;5038068;28;20494;-76
2024/03/02 07:03:53;;;;;;;5.32;3.10;;;7.90;44.60;;;;;;5037121;28;20774;-76
2024/03/02 07:06:19;;;;;;;3.77;2.20;;;8.00;44.20;;;;;;5034043;28;20409;-76
2024/03/02 07:08:45;;;;;;;6.90;3.10;;;8.10;43.80;;;;;;5034418;28;20808;-75
2024/03/02 07:11:10;;;;;;;7.40;2.90;;;8.20;43.60;;;;;;5035171;28;20383;-77
2024/03/02 07:13:36;;;;;;;6.17;2.90;;;8.30;43.60;;;;;;5033902;28;20402;-76
2024/03/02 07:18:41;;;;;;;4.55;2.78;;;8.70;41.20;;;;;;5032553;28;20533;-76
2024/03/02 07:21:07;;;;;;;7.55;2.80;;;8.70;40.90;;;;;;5033190;28;20375;-77
2024/03/02 07:23:34;;;;;;;6.43;3.10;;;8.70;40.40;;;;;;5032587;28;20470;-77
2024/03/02 07:26:01;;;;;;;4.22;3.05;;;8.80;40.20;;;;;;5033119;28;20395;-76
2024/03/02 07:28:27;;;;;;;6.20;2.80;;;8.90;39.90;;;;;;5033069;28;20747;-76
2024/03/02 07:31:04;;;;;;;4.67;2.70;;;9.00;39.60;;;;;;5032406;28;20386;-76
2024/03/02 07:33:30;;;;;;;6.80;3.00;;;9.20;38.80;;;;;;5032095;28;20379;-76
2024/03/02 07:35:56;;;;;;;4.85;2.97;;;9.30;38.90;;;;;;5033251;28;20392;-77
2024/03/02 07:38:22;;;;;;;4.13;2.40;;;9.40;38.40;;;;;;5033957;28;20413;-77
2024/03/02 07:40:50;;;;;;;5.67;2.60;;;9.50;38.40;;;;;;5047447;28;20750;-75
2024/03/02 07:43:17;;;;;;;7.13;3.08;;;9.60;37.60;;;;;;5044289;28;20409;-77
2024/03/02 07:45:42;;;;;;;7.15;3.38;;;9.60;37.50;;;;;;5042876;28;20380;-77
2024/03/02 07:48:08;;;;;;;5.75;3.20;;;9.80;37.40;;;;;;5038024;28;20387;-76
2024/03/02 07:50:35;;;;;;;10.48;3.00;;;9.90;36.60;;;;;;5053935;28;20389;-76
2024/03/02 07:53:01;;;;;;;5.40;2.60;;;10.10;35.80;;;;;;5053153;28;20381;-77
2024/03/02 07:55:27;;;;;;;4.07;2.50;;;10.10;35.10;;;;;;5052352;28;20469;-76
2024/03/02 07:57:52;;;;;;;5.90;3.20;;;10.20;35.30;;;;;;5039914;28;20753;-74
2024/03/02 08:00:18;;;;;;;3.57;2.70;;;10.20;35.00;;;;;;5031502;28;20746;-75
2024/03/02 08:02:44;;;;;;;3.80;3.00;;;10.40;35.10;;;;;;5031410;28;20761;-74
2024/03/02 08:05:11;;;;;;;5.10;3.25;;;10.60;34.70;;;;;;5031074;28;20507;-73
2024/03/02 08:07:37;;;;;;;6.50;3.40;;;10.70;34.20;;;;;;5031935;28;20415;-75
2024/03/02 08:10:03;;;;;;;4.73;2.80;;;10.90;34.40;;;;;;5014022;28;20391;-72
2024/03/02 08:12:28;;;;;;;5.53;3.10;;;11.10;33.60;;;;;;5032027;28;20427;-76
2024/03/02 08:14:54;;;;;;;6.90;3.00;;;11.20;32.20;;;;;;5032910;28;20434;-74
2024/03/02 08:17:19;;;;;;;7.38;3.33;;;11.30;32.00;;;;;;5031116;28;20383;-72
2024/03/02 08:19:45;;;;;;;6.28;2.67;;;11.30;31.60;;;;;;5013486;28;20544;-72
2024/03/02 08:22:11;;;;;;;9.57;3.50;;;11.30;31.90;;;;;;5030771;28;20410;-73
2024/03/02 08:24:37;;;;;;;5.10;3.10;;;11.50;31.90;;;;;;5031149;28;20379;-75
2024/03/02 08:27:03;;;;;;;5.23;3.10;;;11.70;31.30;;;;;;5031132;28;20390;-72
2024/03/02 08:29:28;;;;;;;8.00;3.30;;;11.70;30.50;;;;;;5013944;28;20387;-75
2024/03/02 08:31:54;;;;;;;9.27;3.00;;;11.80;31.10;;;;;;5030475;28;20510;-73
2024/03/02 08:34:20;;;;;;;8.20;3.37;;;11.80;30.90;;;;;;5018954;28;20455;-74
2024/03/02 08:36:46;;;;;;;6.20;3.00;;;11.70;31.70;;;;;;5028328;28;20426;-72
2024/03/02 08:39:15;;;;;;;5.65;2.60;;;11.60;31.20;;;;;;5048383;28;20733;-75
2024/03/02 08:41:47;;;;;;;6.88;3.50;;;11.50;31.20;;;;;;5050198;28;20401;-73
2024/03/02 08:44:13;;;;;;;4.55;2.75;;;11.40;32.40;;;;;;5045765;28;20413;-73
2024/03/02 08:46:39;;;;;;;6.50;2.85;;;11.30;31.90;;;;;;5050268;28;20443;-72
2024/03/02 08:49:06;;;;;;;3.70;2.50;;;11.20;32.30;;;;;;5050660;28;20948;-71
2024/03/02 08:51:31;;;;;;;6.55;3.30;;;11.10;33.00;;;;;;5033551;28;20492;-71
2024/03/02 08:53:57;;;;;;;5.90;2.70;;;11.00;33.00;;;;;;5041058;28;20427;-71
2024/03/02 08:56:24;;;;;;;10.48;3.00;;;11.10;33.10;;;;;;5031112;28;20379;-73
2024/03/02 08:58:50;;;;;;;5.00;3.13;;;11.00;33.10;;;;;;5043379;28;20389;-73
2024/03/02 09:01:17;;;;;;;5.93;2.45;;;11.00;32.80;;;;;;5014663;28;20820;-72
2024/03/02 09:03:45;;;;;;;5.20;2.40;;;11.00;32.60;;;;;;5035727;28;20473;-72
2024/03/02 09:06:12;;;;;;;4.60;2.20;;;11.00;32.70;;;;;;5055325;28;20866;-76
2024/03/02 09:08:38;;;;;;;4.30;2.77;;;11.00;32.40;;;;;;5054552;28;20382;-74
2024/03/02 09:11:05;;;;;;;6.30;2.72;;;11.10;32.50;;;;;;5059970;28;20875;-75
2024/03/02 09:13:31;;;;;;;6.57;2.70;;;11.20;32.50;;;;;;5056894;28;20492;-75
2024/03/02 09:15:57;;;;;;;5.70;2.90;;;11.20;32.40;;;;;;5053550;28;20873;-76
2024/03/02 09:18:22;;;;;;;6.10;2.75;;;11.40;32.20;;;;;;5051284;28;20427;-75
2024/03/02 09:20:48;;;;;;;4.95;2.67;;;11.50;31.90;;;;;;5051941;28;20388;-76
2024/03/02 09:23:13;;;;;;;5.72;2.80;;;11.60;31.70;;;;;;5052853;28;20421;-75
2024/03/02 09:25:39;;;;;;;5.90;3.10;;;11.70;31.70;;;;;;5050670;28;20868;-75
2024/03/02 09:28:04;;;;;;;5.63;2.60;;;11.90;31.60;;;;;;5050046;28;20759;-76
2024/03/02 09:30:30;;;;;;;3.37;2.23;;;12.00;30.40;;;;;;5050426;28;20496;-75
2024/03/02 09:32:55;;;;;;;4.88;2.75;;;12.00;30.10;;;;;;5050020;28;20385;-76
2024/03/02 09:35:21;;;;;;;6.55;3.13;;;12.20;30.30;;;;;;5049815;28;20397;-76
2024/03/02 09:37:47;;;;;;;4.47;2.53;;;12.20;29.90;;;;;;5050000;28;20393;-75
2024/03/02 09:40:13;;;;;;;4.90;2.40;;;12.20;30.10;;;;;;5053550;28;20856;-74
2024/03/02 09:42:40;;;;;;;3.80;1.85;;;12.10;29.30;;;;;;5053651;28;20397;-75
2024/03/02 09:45:06;;;;;;;5.97;2.20;;;12.10;29.00;;;;;;5054250;28;20397;-75
2024/03/02 09:47:32;;;;;;;6.93;2.58;;;12.00;29.80;;;;;;5053786;28;20392;-75
2024/03/02 09:49:57;;;;;;;4.00;1.73;;;12.00;29.60;;;;;;5056542;28;20886;-75
2024/03/02 09:52:23;;;;;;;3.00;1.40;;;11.90;29.60;;;;;;5054185;28;20389;-75
2024/03/02 09:54:49;;;;;;;6.17;1.80;;;12.00;29.30;;;;;;5053972;28;20790;-75
2024/03/02 09:57:15;;;;;;;3.50;1.90;;;12.20;29.40;;;;;;5054044;28;20389;-76
2024/03/02 09:59:41;;;;;;;5.82;1.90;;;12.30;28.90;;;;;;5055688;28;20389;-74
2024/03/02 10:02:07;;;;;;;5.65;1.80;;;12.40;28.50;;;;;;5057004;28;20475;-75
2024/03/02 10:04:35;;;;;;;6.38;1.52;;;12.50;28.10;;;;;;5054213;28;20396;-75
2024/03/02 10:07:12;;;;;;;3.85;1.33;;;12.60;28.00;;;;;;5054184;28;20385;-74
2024/03/02 10:09:37;;;;;;;4.27;1.60;;;12.70;27.60;;;;;;5056993;28;20744;-76
2024/03/02 10:12:08;;;;;;;3.10;1.30;;;12.80;27.60;;;;;;5054888;28;20389;-76
2024/03/02 10:14:34;;;;;;;3.60;1.40;;;12.80;27.00;;;;;;5054898;28;20835;-75
2024/03/02 10:17:04;;;;;;;4.10;1.70;;;12.70;27.30;;;;;;5054055;28;20452;-76
2024/03/02 10:19:33;;;;;;;2.95;1.40;;;12.70;27.80;;;;;;5053413;28;20389;-75
2024/03/02 10:21:59;;;;;;;3.28;1.60;;;12.80;27.50;;;;;;5053744;28;20424;-76
2024/03/02 10:24:25;;;;;;;6.60;2.00;;;13.00;27.20;;;;;;5053696;28;20387;-76
2024/03/02 10:26:51;;;;;;;4.10;1.50;;;13.20;26.60;;;;;;5035984;28;20390;-76
2024/03/02 10:29:18;;;;;;;4.22;1.70;;;13.20;25.80;;;;;;5053644;28;20385;-75
2024/03/02 10:31:45;;;;;;;8.00;2.00;;;13.30;25.70;;;;;;5053674;28;20880;-75
2024/03/02 10:34:13;;;;;;;2.47;1.35;;;13.40;25.70;;;;;;5053002;28;20809;-75
2024/03/02 10:36:44;;;;;;;4.82;1.80;;;13.40;25.20;;;;;;5053393;28;20443;-75
2024/03/02 10:39:10;;;;;;;3.00;1.88;;;13.40;25.80;;;;;;5053453;28;20413;-75
2024/03/02 10:41:37;;;;;;;5.20;1.80;;;13.40;25.70;;;;;;5053426;28;20464;-73
2024/03/02 10:44:08;;;;;;;5.60;2.08;;;13.40;25.40;;;;;;5054101;28;20378;-76
2024/03/02 10:46:35;;;;;;;4.15;2.33;;;13.40;25.60;;;;;;5054058;28;20468;-75
2024/03/02 10:49:03;;;;;;;2.55;1.35;;;13.40;25.50;;;;;;5053525;28;20386;-75
2024/03/02 10:51:35;;;;;;;6.15;1.90;;;13.30;25.50;;;;;;5052097;28;20412;-75
2024/03/02 10:54:02;;;;;;;6.70;2.13;;;13.20;25.80;;;;;;5053534;28;20416;-76
2024/03/02 10:56:28;;;;;;;4.22;2.30;;;13.30;25.80;;;;;;5052445;28;20417;-75
2024/03/02 10:59:10;;;;;;;5.38;2.03;;;13.40;26.10;;;;;;5052547;28;20803;-75
2024/03/02 11:01:39;;;;;;;6.45;1.88;;;13.40;25.90;;;;;;5052389;28;20480;-76
2024/03/02 11:04:08;;;;;;;3.03;1.65;;;13.60;26.20;;;;;;5052759;28;20404;-76
2024/03/02 11:06:38;;;;;;;5.28;1.98;;;13.70;24.60;;;;;;5052511;28;20488;-75
2024/03/02 11:09:08;;;;;;;4.50;2.22;;;13.60;25.00;;;;;;5052522;28;20411;-74
2024/03/02 11:11:37;;;;;;;5.45;2.08;;;13.60;26.20;;;;;;5052702;28;20781;-75
2024/03/02 11:14:08;;;;;;;5.15;2.28;;;13.60;25.30;;;;;;5052198;28;20416;-76
2024/03/02 11:16:35;;;;;;;3.53;2.10;;;13.60;25.20;;;;;;5052470;28;20841;-76
2024/03/02 11:19:22;;;;;;;5.28;2.33;;;13.50;25.20;;;;;;5052926;28;20476;-77
2024/03/02 11:21:48;;;;;;;4.45;1.70;;;13.50;25.90;;;;;;5053208;28;20417;-75
2024/03/02 11:24:35;;;;;;;5.00;2.60;;;13.50;25.40;;;;;;5052832;28;20389;-76
2024/03/02 11:27:05;;;;;;;3.92;2.00;;;13.60;24.90;;;;;;5054256;28;20381;-75
2024/03/02 11:29:38;;;;;;;4.45;2.10;;;13.60;24.80;;;;;;5060668;28;20386;-76
2024/03/02 11:32:05;;;;;;;7.55;2.25;;;13.70;24.40;;;;;;5059351;28;20394;-76
2024/03/02 11:34:32;;;;;;;7.00;2.20;;;13.80;24.40;;;;;;5059002;28;20814;-75
2024/03/02 11:37:04;;;;;;;5.30;2.80;;;13.80;23.70;;;;;;5061645;28;20464;-75
2024/03/02 11:39:30;;;;;;;5.00;2.20;;;13.80;24.90;;;;;;5059794;28;20385;-75
2024/03/02 11:41:57;;;;;;;4.32;2.20;;;13.90;24.40;;;;;;5062291;28;20401;-75
2024/03/02 11:44:26;;;;;;;6.20;2.40;;;13.80;24.00;;;;;;5055727;28;20693;-74
2024/03/02 11:47:10;;;;;;;5.70;2.30;;;13.90;23.90;;;;;;5053103;28;20449;-76
2024/03/02 11:49:38;;;;;;;5.22;2.30;;;13.90;23.80;;;;;;5054714;28;20473;-75
2024/03/02 11:52:05;;;;;;;6.93;2.00;;;13.90;23.70;;;;;;5053801;28;20389;-76
2024/03/02 11:54:36;;;;;;;4.68;2.17;;;13.90;23.50;;;;;;5055622;28;20455;-76
2024/03/02 11:57:02;;;;;;;4.13;2.30;;;14.00;24.00;;;;;;5039401;28;20471;-75
2024/03/02 11:59:29;;;;;;;7.00;2.00;;;14.00;23.80;;;;;;5054833;28;20461;-75
2024/03/02 12:01:55;;;;;;;7.17;2.70;;;14.20;23.20;;;;;;5052914;28;20406;-76
2024/03/02 12:04:23;;;;;;;5.53;2.10;;;14.30;23.20;;;;;;5056984;28;20387;-76
2024/03/02 12:06:55;;;;;;;6.95;2.92;;;14.30;22.60;;;;;;5056610;28;20409;-75
2024/03/02 12:09:21;;;;;;;3.10;1.70;;;14.50;22.70;;;;;;5051669;28;20899;-75
2024/03/02 12:11:47;;;;;;;6.03;2.17;;;14.50;21.60;;;;;;5051770;28;20392;-76
2024/03/02 12:14:12;;;;;;;4.70;2.30;;;14.50;21.70;;;;;;5051359;28;20810;-76
2024/03/02 12:16:39;;;;;;;4.95;2.30;;;14.60;21.90;;;;;;5051193;28;20419;-75
2024/03/02 12:19:05;;;;;;;5.73;2.20;;;14.60;21.50;;;;;;5051556;28;20413;-75
2024/03/02 12:21:31;;;;;;;3.35;1.90;;;14.60;22.00;;;;;;5051189;28;20384;-76
2024/03/02 12:23:57;;;;;;;3.75;1.90;;;14.60;21.80;;;;;;5050921;28;20523;-75
2024/03/02 12:26:23;;;;;;;5.75;1.90;;;14.70;21.10;;;;;;5051127;28;20460;-75
2024/03/02 12:28:49;;;;;;;5.40;2.70;;;14.80;21.20;;;;;;5051120;28;20409;-74
2024/03/02 12:31:15;;;;;;;3.30;2.00;;;15.10;21.50;;;;;;5051139;28;20396;-76
2024/03/02 12:33:41;;;;;;;5.33;1.50;;;15.30;20.30;;;;;;5050693;28;20468;-76
2024/03/02 12:36:11;;;;;;;2.90;1.85;;;15.40;19.80;;;;;;5050686;28;20442;-75
2024/03/02 12:38:37;;;;;;;8.10;2.30;;;15.50;19.90;;;;;;5050489;28;20860;-76
2024/03/02 12:41:03;;;;;;;4.07;2.08;;;15.50;19.90;;;;;;5050827;28;20389;-75
2024/03/02 12:43:32;;;;;;;4.68;2.40;;;15.60;20.30;;;;;;5051397;28;20405;-76
2024/03/02 12:45:58;;;;;;;4.43;2.10;;;15.70;20.40;;;;;;5051792;28;20382;-76
2024/03/02 12:48:25;;;;;;;4.00;2.27;;;15.80;19.90;;;;;;5047782;28;20481;-72
2024/03/02 12:50:50;;;;;;;3.67;1.75;;;15.80;19.40;;;;;;5039934;28;20398;-71
2024/03/02 12:53:16;;;;;;;3.50;1.60;;;15.80;19.90;;;;;;5041732;28;20391;-72